createdAt,value
2023-02-18T00:01:02.990Z,11.90
2023-02-18T00:03:30.478Z,11.90
2023-02-18T00:05:57.318Z,11.90
2023-02-18T00:08:24.096Z,11.90
2023-02-18T00:10:51.069Z,11.90
2023-02-18T00:13:17.880Z,12.00
2023-02-18T00:15:44.647Z,12.00
2023-02-18T00:18:11.882Z,12.00
2023-02-18T00:20:39.981Z,12.00
2023-02-18T00:23:06.810Z,12.00
2023-02-18T00:25:33.571Z,12.00
2023-02-18T00:28:00.336Z,12.00
2023-02-18T00:30:28.599Z,12.10
2023-02-18T00:32:55.705Z,12.10
2023-02-18T00:35:22.413Z,12.10
2023-02-18T00:37:52.717Z,12.10
2023-02-18T00:40:20.457Z,12.10
2023-02-18T00:42:47.192Z,12.10
2023-02-18T00:45:13.962Z,12.20
2023-02-18T00:47:40.841Z,12.20
2023-02-18T00:50:09.469Z,12.10
2023-02-18T00:52:36.599Z,12.20
2023-02-18T00:55:03.576Z,12.10
2023-02-18T00:57:30.296Z,12.20
2023-02-18T00:59:56.953Z,12.20
2023-02-18T01:02:23.690Z,12.10
2023-02-18T01:04:50.414Z,12.10
2023-02-18T01:07:17.223Z,12.20
2023-02-18T01:09:43.937Z,12.20
2023-02-18T01:12:10.957Z,12.10
2023-02-18T01:14:37.931Z,12.20
2023-02-18T01:17:04.736Z,12.20
2023-02-18T01:19:31.577Z,12.10
2023-02-18T01:21:58.324Z,12.10
2023-02-18T01:24:25.038Z,12.10
2023-02-18T01:26:51.814Z,12.20
2023-02-18T01:29:18.542Z,12.10
2023-02-18T01:31:45.368Z,12.20
2023-02-18T01:34:12.224Z,12.20
2023-02-18T01:36:38.960Z,12.10
2023-02-18T01:39:06.677Z,12.10
2023-02-18T01:41:34.159Z,12.00
2023-02-18T01:44:30.533Z,12.10
2023-02-18T01:46:57.335Z,12.10
2023-02-18T01:49:35.853Z,12.10
2023-02-18T01:52:08.702Z,12.10
2023-02-18T01:54:40.042Z,12.10
2023-02-18T01:57:34.664Z,12.10
2023-02-18T02:00:14.342Z,12.10
2023-02-18T02:02:45.446Z,12.10
2023-02-18T02:05:13.125Z,12.10
2023-02-18T02:07:42.011Z,12.00
2023-02-18T02:10:12.524Z,12.10
2023-02-18T02:12:45.968Z,12.10
2023-02-18T02:15:34.085Z,12.10
2023-02-18T02:18:47.830Z,12.10
2023-02-18T02:21:14.482Z,12.10
2023-02-18T02:24:02.718Z,12.10
2023-02-18T02:27:11.229Z,12.00
2023-02-18T02:29:43.866Z,12.00
2023-02-18T02:32:45.666Z,12.00
2023-02-18T02:35:23.408Z,11.90
2023-02-18T02:37:53.132Z,11.90
2023-02-18T02:40:44.134Z,11.90
2023-02-18T02:43:28.524Z,12.00
2023-02-18T02:46:07.349Z,12.00
2023-02-18T02:48:52.309Z,12.00
2023-02-18T02:51:41.600Z,12.00
2023-02-18T02:54:19.015Z,12.00
2023-02-18T02:56:45.902Z,12.00
2023-02-18T02:59:18.890Z,12.00
2023-02-18T03:02:09.978Z,12.00
2023-02-18T03:04:45.631Z,12.00
2023-02-18T03:07:35.224Z,12.00
2023-02-18T03:10:47.104Z,12.00
2023-02-18T03:13:19.138Z,12.00
2023-02-18T03:15:59.396Z,11.90
2023-02-18T03:18:45.715Z,11.90
2023-02-18T03:21:21.179Z,11.90
2023-02-18T03:23:59.964Z,11.80
2023-02-18T03:26:29.535Z,11.80
2023-02-18T03:29:01.441Z,11.80
2023-02-18T03:31:32.382Z,11.80
2023-02-18T03:34:11.273Z,11.70
2023-02-18T03:36:39.052Z,11.70
2023-02-18T03:39:32.019Z,11.80
2023-02-18T03:41:59.100Z,11.80
2023-02-18T03:44:26.230Z,11.80
2023-02-18T03:46:53.498Z,11.80
2023-02-18T03:49:20.267Z,11.80
2023-02-18T03:51:47.422Z,11.80
2023-02-18T03:54:14.729Z,11.80
2023-02-18T03:56:42.592Z,11.80
2023-02-18T03:59:09.769Z,11.90
2023-02-18T04:01:36.719Z,11.90
2023-02-18T04:04:03.832Z,11.80
2023-02-18T04:06:30.906Z,11.80
2023-02-18T04:08:57.678Z,11.80
2023-02-18T04:11:24.422Z,11.80
2023-02-18T04:13:51.142Z,11.80
2023-02-18T04:16:17.915Z,11.90
2023-02-18T04:18:44.797Z,11.90
2023-02-18T04:21:11.538Z,11.90
2023-02-18T04:23:38.289Z,11.90
2023-02-18T04:26:05.127Z,11.90
2023-02-18T04:28:32.024Z,11.90
2023-02-18T04:30:58.765Z,11.90
2023-02-18T04:33:25.526Z,11.80
2023-02-18T04:35:52.267Z,11.80
2023-02-18T04:38:19.089Z,11.90
2023-02-18T04:40:48.724Z,11.90
2023-02-18T04:43:15.521Z,11.90
2023-02-18T04:45:42.302Z,11.80
2023-02-18T04:48:09.244Z,11.80
2023-02-18T04:50:36.028Z,11.80
2023-02-18T04:53:02.829Z,11.80
2023-02-18T04:55:29.568Z,11.80
2023-02-18T04:57:56.491Z,11.80
2023-02-18T05:00:23.217Z,11.80
2023-02-18T05:02:49.920Z,11.80
2023-02-18T05:05:16.891Z,11.80
2023-02-18T05:07:43.759Z,11.80
2023-02-18T05:10:14.570Z,11.80
2023-02-18T05:12:41.277Z,11.70
2023-02-18T05:15:08.616Z,11.70
2023-02-18T05:17:35.671Z,11.70
2023-02-18T05:20:02.491Z,11.70
2023-02-18T05:22:29.268Z,11.70
2023-02-18T05:24:55.954Z,11.60
2023-02-18T05:27:22.741Z,11.70
2023-02-18T05:29:49.508Z,11.70
2023-02-18T05:32:16.377Z,11.70
2023-02-18T05:34:43.205Z,11.70
2023-02-18T05:37:10.035Z,11.80
2023-02-18T05:39:36.846Z,11.80
2023-02-18T05:42:03.761Z,11.80
2023-02-18T05:44:30.530Z,11.70
2023-02-18T05:47:11.516Z,11.70
2023-02-18T05:49:39.384Z,11.70
2023-02-18T05:52:06.244Z,11.70
2023-02-18T05:54:33.461Z,11.70
2023-02-18T05:57:00.361Z,11.80
2023-02-18T05:59:27.285Z,11.80
2023-02-18T06:01:54.662Z,11.70
2023-02-18T06:04:21.441Z,11.70
2023-02-18T06:06:48.212Z,11.70
2023-02-18T06:09:15.016Z,11.70
2023-02-18T06:11:41.792Z,11.70
2023-02-18T06:14:08.925Z,11.60
2023-02-18T06:16:35.711Z,11.60
2023-02-18T06:19:02.467Z,11.60
2023-02-18T06:21:29.322Z,11.60
2023-02-18T06:23:56.122Z,11.50
2023-02-18T06:26:23.042Z,11.50
2023-02-18T06:28:49.795Z,11.40
2023-02-18T06:31:16.668Z,11.40
2023-02-18T06:33:43.508Z,11.40
2023-02-18T06:36:12.411Z,11.40
2023-02-18T06:38:44.462Z,11.40
2023-02-18T06:41:12.892Z,11.40
2023-02-18T06:43:40.107Z,11.40
2023-02-18T06:46:07.614Z,11.40
2023-02-18T06:48:34.530Z,11.40
2023-02-18T06:51:01.407Z,11.40
2023-02-18T06:53:28.125Z,11.40
2023-02-18T06:55:54.978Z,11.40
2023-02-18T06:58:23.292Z,11.50
2023-02-18T07:00:50.132Z,11.60
2023-02-18T07:03:17.179Z,11.60
2023-02-18T07:05:43.925Z,11.60
2023-02-18T07:08:11.313Z,11.60
2023-02-18T07:10:38.184Z,11.60
2023-02-18T07:13:05.342Z,11.60
2023-02-18T07:15:32.459Z,11.60
2023-02-18T07:17:59.366Z,11.70
2023-02-18T07:20:27.186Z,11.70
2023-02-18T07:22:55.039Z,11.70
2023-02-18T07:25:23.378Z,11.70
2023-02-18T07:27:51.073Z,11.70
2023-02-18T07:30:19.416Z,11.80
2023-02-18T07:32:46.418Z,11.80
2023-02-18T07:35:14.926Z,11.90
2023-02-18T07:37:49.140Z,11.80
2023-02-18T07:40:19.257Z,11.80
2023-02-18T07:42:46.285Z,11.90
2023-02-18T07:45:14.086Z,11.90
2023-02-18T07:47:42.203Z,11.90
2023-02-18T07:50:10.153Z,11.90
2023-02-18T07:52:36.979Z,11.90
2023-02-18T07:55:03.854Z,12.00
2023-02-18T07:57:30.601Z,12.00
2023-02-18T07:59:57.307Z,12.00
2023-02-18T08:02:25.050Z,12.10
2023-02-18T08:04:51.838Z,12.10
2023-02-18T08:07:21.823Z,12.20
2023-02-18T08:09:50.562Z,12.30
2023-02-18T08:12:17.529Z,12.30
2023-02-18T08:14:44.364Z,12.30
2023-02-18T08:17:11.172Z,12.30
2023-02-18T08:19:37.913Z,12.40
2023-02-18T08:22:04.708Z,12.40
2023-02-18T08:24:31.469Z,12.50
2023-02-18T08:27:01.099Z,12.40
2023-02-18T08:29:28.797Z,12.40
2023-02-18T08:31:57.417Z,12.40
2023-02-18T08:34:24.303Z,12.50
2023-02-18T08:36:51.098Z,12.60
2023-02-18T08:39:19.072Z,12.60
2023-02-18T08:41:45.822Z,12.60
2023-02-18T08:44:12.665Z,12.70
2023-02-18T08:46:39.548Z,12.60
2023-02-18T08:49:06.659Z,12.60
2023-02-18T08:51:34.142Z,12.70
2023-02-18T08:54:00.907Z,12.70
2023-02-18T08:56:27.862Z,12.80
2023-02-18T08:58:54.607Z,12.90
2023-02-18T09:01:21.412Z,12.90
2023-02-18T09:03:48.828Z,12.80
2023-02-18T09:06:16.056Z,12.90
2023-02-18T09:08:42.867Z,12.90
2023-02-18T09:11:11.755Z,12.80
2023-02-18T09:13:39.353Z,12.80
2023-02-18T09:16:12.843Z,12.90
2023-02-18T09:18:40.158Z,13.10
2023-02-18T09:21:09.777Z,13.10
2023-02-18T09:23:37.198Z,13.30
2023-02-18T09:26:09.609Z,13.30
2023-02-18T09:28:37.599Z,13.30
2023-02-18T09:31:06.963Z,13.30
2023-02-18T09:33:39.226Z,13.40
2023-02-18T09:36:06.637Z,13.40
2023-02-18T09:38:33.822Z,13.50
2023-02-18T09:41:02.765Z,13.70
2023-02-18T09:43:43.726Z,13.80
2023-02-18T09:46:21.649Z,13.80
2023-02-18T09:48:49.142Z,13.90
2023-02-18T09:51:16.701Z,14.00
2023-02-18T09:53:45.264Z,14.10
2023-02-18T09:56:17.713Z,14.20
2023-02-18T09:58:46.418Z,14.20
2023-02-18T10:01:29.006Z,14.30
2023-02-18T10:04:01.117Z,14.30
2023-02-18T10:06:32.435Z,14.30
2023-02-18T10:09:03.822Z,14.30
2023-02-18T10:11:42.113Z,14.20
2023-02-18T10:14:14.558Z,14.20
2023-02-18T10:16:43.672Z,14.30
2023-02-18T10:19:23.118Z,14.30
2023-02-18T10:21:51.446Z,14.30
2023-02-18T10:24:32.273Z,14.30
2023-02-18T10:26:59.755Z,14.30
2023-02-18T10:29:27.783Z,14.30
2023-02-18T10:32:13.333Z,14.40
2023-02-18T10:34:43.076Z,14.40
2023-02-18T10:37:36.636Z,14.60
2023-02-18T10:40:42.867Z,14.70
2023-02-18T10:43:24.275Z,14.80
2023-02-18T10:46:16.164Z,14.80
2023-02-18T10:49:09.709Z,14.80
2023-02-18T10:51:39.032Z,14.90
2023-02-18T10:54:08.224Z,15.10
2023-02-18T10:56:39.977Z,15.00
2023-02-18T10:59:33.494Z,14.70
2023-02-18T11:02:13.783Z,14.80
2023-02-18T11:04:45.704Z,14.70
2023-02-18T11:07:21.332Z,14.80
2023-02-18T11:09:49.312Z,14.90
2023-02-18T11:12:50.354Z,15.00
2023-02-18T11:15:24.378Z,15.10
2023-02-18T11:17:54.519Z,15.20
2023-02-18T11:20:24.138Z,15.30
2023-02-18T11:22:51.591Z,15.30
2023-02-18T11:25:33.571Z,15.20
2023-02-18T11:28:22.776Z,15.00
2023-02-18T11:30:55.262Z,15.00
2023-02-18T11:33:23.779Z,15.00
2023-02-18T11:35:54.044Z,14.90
2023-02-18T11:38:45.490Z,15.00
2023-02-18T11:41:20.232Z,15.10
2023-02-18T11:43:51.029Z,15.10
2023-02-18T11:46:24.439Z,14.90
2023-02-18T11:48:51.922Z,14.90
2023-02-18T11:51:33.787Z,14.80
2023-02-18T11:54:19.789Z,14.80
2023-02-18T11:57:06.138Z,14.80
2023-02-18T11:59:37.730Z,14.80
2023-02-18T12:02:10.384Z,14.70
2023-02-18T12:04:45.986Z,14.70
2023-02-18T12:07:17.522Z,14.70
2023-02-18T12:09:58.260Z,14.70
2023-02-18T12:13:11.438Z,14.70
2023-02-18T12:16:05.416Z,14.80
2023-02-18T12:18:51.073Z,14.90
2023-02-18T12:21:37.376Z,14.90
2023-02-18T12:24:13.681Z,15.00
2023-02-18T12:26:58.732Z,15.00
2023-02-18T12:29:25.390Z,15.00
2023-02-18T12:32:24.282Z,15.10
2023-02-18T12:35:10.326Z,15.00
2023-02-18T12:38:06.595Z,15.10
2023-02-18T12:40:48.072Z,15.30
2023-02-18T12:43:43.016Z,15.30
2023-02-18T12:46:59.694Z,15.30
2023-02-18T12:49:44.770Z,15.30
2023-02-18T12:52:29.600Z,15.20
2023-02-18T12:55:19.114Z,15.20
2023-02-18T12:58:01.167Z,15.10
2023-02-18T13:00:50.640Z,15.00
2023-02-18T13:03:55.092Z,15.00
2023-02-18T13:06:45.067Z,14.90
2023-02-18T13:09:31.328Z,14.90
2023-02-18T13:12:12.040Z,14.90
2023-02-18T13:15:01.902Z,14.90
2023-02-18T13:17:34.276Z,15.00
2023-02-18T13:20:38.012Z,15.00
2023-02-18T13:23:05.798Z,14.90
2023-02-18T13:25:39.190Z,14.80
2023-02-18T13:28:23.355Z,14.70
2023-02-18T13:31:08.655Z,14.70
2023-02-18T13:33:41.350Z,14.60
2023-02-18T13:36:23.450Z,14.50
2023-02-18T13:38:53.219Z,14.60
2023-02-18T13:41:20.928Z,14.60
2023-02-18T13:43:48.061Z,14.60
2023-02-18T13:46:19.762Z,14.70
2023-02-18T13:48:54.996Z,14.80
2023-02-18T13:51:29.303Z,14.80
2023-02-18T13:54:21.158Z,14.80
2023-02-18T13:57:06.329Z,14.70
2023-02-18T13:59:44.094Z,14.70
2023-02-18T14:02:19.773Z,14.80
2023-02-18T14:04:46.519Z,14.90
2023-02-18T14:07:26.425Z,14.70
2023-02-18T14:09:55.445Z,14.80
2023-02-18T14:12:57.287Z,14.80
2023-02-18T14:15:23.978Z,14.70
2023-02-18T14:18:10.858Z,14.70
2023-02-18T14:20:40.355Z,14.70
2023-02-18T14:23:19.189Z,14.70
2023-02-18T14:26:06.056Z,14.60
2023-02-18T14:28:36.186Z,14.60
2023-02-18T14:31:13.048Z,14.60
2023-02-18T14:33:47.456Z,14.60
2023-02-18T14:36:32.381Z,14.60
2023-02-18T14:39:08.101Z,14.50
2023-02-18T14:41:40.726Z,14.60
2023-02-18T14:44:37.924Z,14.60
2023-02-18T14:47:22.775Z,14.50
2023-02-18T14:49:55.441Z,14.50
2023-02-18T14:52:22.174Z,14.60
2023-02-18T14:54:49.384Z,14.50
2023-02-18T14:57:18.802Z,14.50
2023-02-18T14:59:47.519Z,14.50
2023-02-18T15:02:23.386Z,14.50
2023-02-18T15:04:50.653Z,14.50
2023-02-18T15:07:21.290Z,14.50
2023-02-18T15:09:52.400Z,14.50
2023-02-18T15:12:23.966Z,14.40
2023-02-18T15:14:54.649Z,14.30
2023-02-18T15:17:27.265Z,14.30
2023-02-18T15:19:59.810Z,14.20
2023-02-18T15:22:31.105Z,14.30
2023-02-18T15:24:58.508Z,14.20
2023-02-18T15:27:34.358Z,14.20
2023-02-18T15:30:17.906Z,14.20
2023-02-18T15:32:58.930Z,14.10
2023-02-18T15:35:33.520Z,14.20
2023-02-18T15:38:01.536Z,14.10
2023-02-18T15:40:32.167Z,14.20
2023-02-18T15:43:04.702Z,14.10
2023-02-18T15:45:43.262Z,14.20
2023-02-18T15:48:33.573Z,14.20
2023-02-18T15:51:16.984Z,14.20
2023-02-18T15:53:49.004Z,14.20
2023-02-18T15:56:24.033Z,14.10
2023-02-18T15:58:50.756Z,14.00
2023-02-18T16:01:29.046Z,14.10
2023-02-18T16:03:56.316Z,14.00
2023-02-18T16:06:29.644Z,14.00
2023-02-18T16:08:58.938Z,14.00
2023-02-18T16:11:30.208Z,14.00
2023-02-18T16:13:56.994Z,14.00
2023-02-18T16:16:26.089Z,13.90
2023-02-18T16:18:52.917Z,13.90
2023-02-18T16:21:19.631Z,13.90
2023-02-18T16:23:59.565Z,13.90
2023-02-18T16:26:38.440Z,13.90
2023-02-18T16:29:14.188Z,13.70
2023-02-18T16:31:41.692Z,13.70
2023-02-18T16:34:08.844Z,13.60
2023-02-18T16:36:35.705Z,13.60
2023-02-18T16:39:03.025Z,13.60
2023-02-18T16:41:30.112Z,13.50
2023-02-18T16:43:57.762Z,13.50
2023-02-18T16:46:25.116Z,13.40
2023-02-18T16:48:56.383Z,13.40
2023-02-18T16:51:34.568Z,13.30
2023-02-18T16:54:01.316Z,13.30
2023-02-18T16:56:33.205Z,13.30
2023-02-18T16:59:00.317Z,13.30
2023-02-18T17:01:38.290Z,13.30
2023-02-18T17:04:06.207Z,13.30
2023-02-18T17:06:33.769Z,13.30
2023-02-18T17:09:00.828Z,13.30
2023-02-18T17:11:33.259Z,13.20
2023-02-18T17:14:00.825Z,13.20
2023-02-18T17:16:28.610Z,13.20
2023-02-18T17:18:55.361Z,13.20
2023-02-18T17:21:24.503Z,13.10
2023-02-18T17:23:52.375Z,13.10
2023-02-18T17:26:24.805Z,13.00
2023-02-18T17:28:52.896Z,13.00
2023-02-18T17:31:27.059Z,13.00
2023-02-18T17:33:55.360Z,12.90
2023-02-18T17:36:22.506Z,12.90
2023-02-18T17:38:52.110Z,12.90
2023-02-18T17:41:19.401Z,12.80
2023-02-18T17:43:46.142Z,12.90
2023-02-18T17:46:15.137Z,12.80
2023-02-18T17:48:42.949Z,12.80
2023-02-18T17:51:19.427Z,12.80
2023-02-18T17:53:46.235Z,12.70
2023-02-18T17:56:13.366Z,12.70
2023-02-18T17:58:40.110Z,12.70
2023-02-18T18:01:06.971Z,12.70
2023-02-18T18:03:33.743Z,12.70
2023-02-18T18:06:00.737Z,12.60
2023-02-18T18:08:27.556Z,12.60
2023-02-18T18:10:58.716Z,12.60
2023-02-18T18:13:33.078Z,12.60
2023-02-18T18:16:00.440Z,12.60
2023-02-18T18:18:27.649Z,12.60
2023-02-18T18:21:00.998Z,12.60
2023-02-18T18:23:29.342Z,12.60
2023-02-18T18:25:57.907Z,12.60
2023-02-18T18:28:26.902Z,12.60
2023-02-18T18:30:57.626Z,12.60
2023-02-18T18:33:27.946Z,12.50
2023-02-18T18:35:56.443Z,12.50
2023-02-18T18:38:25.275Z,12.60
2023-02-18T18:40:53.369Z,12.60
2023-02-18T18:43:23.477Z,12.60
2023-02-18T18:45:51.077Z,12.60
2023-02-18T18:48:20.144Z,12.60
2023-02-18T18:50:48.354Z,12.60
2023-02-18T18:53:24.700Z,12.60
2023-02-18T18:56:00.389Z,12.60
2023-02-18T18:58:27.326Z,12.60
2023-02-18T19:00:57.690Z,12.60
2023-02-18T19:03:26.115Z,12.50
2023-02-18T19:05:53.543Z,12.50
2023-02-18T19:08:21.061Z,12.50
2023-02-18T19:10:50.612Z,12.60
2023-02-18T19:13:26.002Z,12.60
2023-02-18T19:16:02.245Z,12.60
2023-02-18T19:18:30.009Z,12.60
2023-02-18T19:20:56.795Z,12.60
2023-02-18T19:23:23.512Z,12.70
2023-02-18T19:25:50.280Z,12.70
2023-02-18T19:28:18.013Z,12.70
2023-02-18T19:30:47.207Z,12.70
2023-02-18T19:33:15.150Z,12.60
2023-02-18T19:35:42.882Z,12.60
2023-02-18T19:38:12.051Z,12.60
2023-02-18T19:40:39.325Z,12.60
2023-02-18T19:43:07.696Z,12.60
2023-02-18T19:45:35.121Z,12.50
2023-02-18T19:48:02.340Z,12.50
2023-02-18T19:50:31.299Z,12.50
2023-02-18T19:52:59.204Z,12.50
2023-02-18T19:55:26.193Z,12.60
2023-02-18T19:57:53.843Z,12.50
2023-02-18T20:00:24.959Z,12.60
2023-02-18T20:02:52.045Z,12.50
2023-02-18T20:05:19.515Z,12.50
2023-02-18T20:07:46.875Z,12.50
2023-02-18T20:10:17.338Z,12.50
2023-02-18T20:12:44.297Z,12.50
2023-02-18T20:15:11.525Z,12.60
2023-02-18T20:17:39.433Z,12.50
2023-02-18T20:20:07.511Z,12.50
2023-02-18T20:22:34.434Z,12.50
2023-02-18T20:25:01.242Z,12.50
2023-02-18T20:27:28.112Z,12.50
2023-02-18T20:29:54.839Z,12.50
2023-02-18T20:32:21.952Z,12.50
2023-02-18T20:34:48.925Z,12.60
2023-02-18T20:37:15.767Z,12.50
2023-02-18T20:39:42.586Z,12.50
2023-02-18T20:42:16.280Z,12.50
2023-02-18T20:44:44.535Z,12.50
2023-02-18T20:47:13.662Z,12.50
2023-02-18T20:49:41.046Z,12.50
2023-02-18T20:52:09.224Z,12.60
2023-02-18T20:54:36.680Z,12.50
2023-02-18T20:57:03.985Z,12.50
2023-02-18T20:59:33.217Z,12.50
2023-02-18T21:02:00.404Z,12.50
2023-02-18T21:04:27.467Z,12.40
2023-02-18T21:06:55.372Z,12.40
2023-02-18T21:09:22.199Z,12.40
2023-02-18T21:11:49.273Z,12.30
2023-02-18T21:14:16.030Z,12.30
2023-02-18T21:16:42.980Z,12.30
2023-02-18T21:19:13.505Z,12.40
2023-02-18T21:21:40.776Z,12.40
2023-02-18T21:24:07.565Z,12.40
2023-02-18T21:26:34.431Z,12.40
2023-02-18T21:29:05.454Z,12.50
2023-02-18T21:31:41.370Z,12.40
2023-02-18T21:34:13.257Z,12.40
2023-02-18T21:36:40.195Z,12.40
2023-02-18T21:39:09.080Z,12.40
2023-02-18T21:41:38.534Z,12.40
2023-02-18T21:44:07.179Z,12.40
2023-02-18T21:46:36.316Z,12.40
2023-02-18T21:49:09.894Z,12.50
2023-02-18T21:51:56.553Z,12.50
2023-02-18T21:54:29.970Z,12.50
2023-02-18T21:56:58.400Z,12.50
2023-02-18T21:59:27.654Z,12.50
2023-02-18T22:01:55.290Z,12.50
2023-02-18T22:04:22.337Z,12.50
2023-02-18T22:06:49.172Z,12.50
2023-02-18T22:09:15.969Z,12.50
2023-02-18T22:11:43.104Z,12.50
2023-02-18T22:14:11.411Z,12.50
2023-02-18T22:16:38.680Z,12.50
2023-02-18T22:19:06.470Z,12.40
2023-02-18T22:21:33.833Z,12.40
2023-02-18T22:24:00.811Z,12.40
2023-02-18T22:26:27.917Z,12.40
2023-02-18T22:28:56.898Z,12.40
2023-02-18T22:31:25.027Z,12.40
2023-02-18T22:33:53.512Z,12.40
2023-02-18T22:36:21.914Z,12.30
2023-02-18T22:38:50.841Z,12.30
2023-02-18T22:41:19.371Z,12.30
2023-02-18T22:43:46.566Z,12.30
2023-02-18T22:46:16.626Z,12.20
2023-02-18T22:48:43.752Z,12.30
2023-02-18T22:51:25.142Z,12.30
2023-02-18T22:53:54.359Z,12.30
2023-02-18T22:56:22.799Z,12.30
2023-02-18T22:58:51.127Z,12.30
2023-02-18T23:01:30.260Z,12.20
2023-02-18T23:04:05.994Z,12.20
2023-02-18T23:06:33.009Z,12.20
2023-02-18T23:08:59.786Z,12.20
2023-02-18T23:11:26.784Z,12.10
2023-02-18T23:14:14.110Z,12.30
2023-02-18T23:16:59.563Z,12.30
2023-02-18T23:19:27.994Z,12.20
2023-02-18T23:21:54.855Z,12.20
2023-02-18T23:24:22.679Z,12.20
2023-02-18T23:26:50.034Z,12.20
2023-02-18T23:29:17.491Z,12.20
2023-02-18T23:31:44.454Z,12.20
2023-02-18T23:34:13.926Z,12.20
2023-02-18T23:36:41.074Z,12.20
2023-02-18T23:39:09.511Z,12.20
2023-02-18T23:41:37.215Z,12.20
2023-02-18T23:44:06.367Z,12.20
2023-02-18T23:46:33.928Z,12.20
2023-02-18T23:49:01.284Z,12.20
2023-02-18T23:51:29.752Z,12.10
2023-02-18T23:53:57.069Z,12.10
2023-02-18T23:56:26.249Z,12.10
2023-02-18T23:58:57.276Z,12.10
